Lawrence, Massachusetts
Current Conditions -  °F | °C
As of 5:54 PM on Tuesday 25 Nov 2014 (Local Time) from KLWM Reporting Station
Clear Clear  
Wind Chill: 53°   Ceiling: Unl
Heat Index: 53°   Visibility: 10mi
Dew Point: 31°   Wind: 9mph
Humidity: 43%   Direction: 250°WSW
Pressure: 29.98"   Gusts: NA
Location:  42.71°N, 71.16°W
Report Text: KLWM 252254Z 25008KT 10SM CLR 12/M01 A2998 RMK AO2 SLP151 T01171006
Loading
Personal Weather Stations






























Interactive Weather Map New forecast layout! Learn more

10-Day Weather Forecast

Advertisements
Track Severe Weather on mobile